sensor_id;sensor_type;location;lat;lon;timestamp;P1;durP1;ratioP1;P2;durP2;ratioP2
25932;SDS011;13731;51.166;4.474;2023-10-09T00:01:06;145.60;;;137.73;;
25932;SDS011;13731;51.166;4.474;2023-10-09T00:03:42;165.20;;;156.50;;
25932;SDS011;13731;51.166;4.474;2023-10-09T00:06:09;177.40;;;167.82;;
25932;SDS011;13731;51.166;4.474;2023-10-09T00:08:38;170.77;;;161.70;;
25932;SDS011;13731;51.166;4.474;2023-10-09T00:11:04;165.90;;;156.95;;
25932;SDS011;13731;51.166;4.474;2023-10-09T00:13:44;149.52;;;141.63;;
25932;SDS011;13731;51.166;4.474;2023-10-09T00:16:20;138.65;;;130.80;;
25932;SDS011;13731;51.166;4.474;2023-10-09T00:19:10;126.60;;;119.85;;
25932;SDS011;13731;51.166;4.474;2023-10-09T00:21:43;127.70;;;120.93;;
25932;SDS011;13731;51.166;4.474;2023-10-09T00:24:10;116.60;;;110.20;;
25932;SDS011;13731;51.166;4.474;2023-10-09T00:26:47;101.80;;;96.38;;
25932;SDS011;13731;51.166;4.474;2023-10-09T00:29:15;98.90;;;93.05;;
25932;SDS011;13731;51.166;4.474;2023-10-09T00:31:50;102.38;;;96.47;;
25932;SDS011;13731;51.166;4.474;2023-10-09T00:34:28;99.13;;;93.30;;
25932;SDS011;13731;51.166;4.474;2023-10-09T00:36:54;98.03;;;92.35;;
25932;SDS011;13731;51.166;4.474;2023-10-09T00:39:22;98.32;;;92.60;;
25932;SDS011;13731;51.166;4.474;2023-10-09T00:42:03;92.03;;;86.70;;
25932;SDS011;13731;51.166;4.474;2023-10-09T00:44:31;92.93;;;87.10;;
25932;SDS011;13731;51.166;4.474;2023-10-09T00:47:04;100.03;;;94.50;;
25932;SDS011;13731;51.166;4.474;2023-10-09T00:49:46;96.07;;;90.53;;
25932;SDS011;13731;51.166;4.474;2023-10-09T00:52:26;102.55;;;96.45;;
25932;SDS011;13731;51.166;4.474;2023-10-09T00:54:59;105.75;;;99.70;;
25932;SDS011;13731;51.166;4.474;2023-10-09T00:57:50;109.38;;;103.05;;
25932;SDS011;13731;51.166;4.474;2023-10-09T01:00:23;118.25;;;111.60;;
25932;SDS011;13731;51.166;4.474;2023-10-09T01:03:09;115.75;;;109.20;;
25932;SDS011;13731;51.166;4.474;2023-10-09T01:05:39;117.93;;;111.47;;
25932;SDS011;13731;51.166;4.474;2023-10-09T01:08:31;111.00;;;104.65;;
25932;SDS011;13731;51.166;4.474;2023-10-09T01:11:16;101.15;;;95.55;;
25932;SDS011;13731;51.166;4.474;2023-10-09T01:13:55;105.47;;;99.65;;
25932;SDS011;13731;51.166;4.474;2023-10-09T01:16:37;109.18;;;102.93;;
25932;SDS011;13731;51.166;4.474;2023-10-09T01:19:03;102.30;;;96.45;;
25932;SDS011;13731;51.166;4.474;2023-10-09T01:21:38;106.22;;;100.20;;
25932;SDS011;13731;51.166;4.474;2023-10-09T01:24:05;110.35;;;104.25;;
25932;SDS011;13731;51.166;4.474;2023-10-09T01:26:36;113.60;;;107.43;;
25932;SDS011;13731;51.166;4.474;2023-10-09T01:31:46;116.55;;;109.75;;
25932;SDS011;13731;51.166;4.474;2023-10-09T01:37:01;126.43;;;119.22;;
25932;SDS011;13731;51.166;4.474;2023-10-09T01:39:30;121.90;;;115.10;;
25932;SDS011;13731;51.166;4.474;2023-10-09T01:41:56;127.63;;;120.68;;
25932;SDS011;13731;51.166;4.474;2023-10-09T01:44:31;123.95;;;116.85;;
25932;SDS011;13731;51.166;4.474;2023-10-09T01:47:04;117.45;;;110.78;;
25932;SDS011;13731;51.166;4.474;2023-10-09T01:49:36;125.05;;;117.95;;
25932;SDS011;13731;51.166;4.474;2023-10-09T01:52:10;128.68;;;121.35;;
25932;SDS011;13731;51.166;4.474;2023-10-09T01:54:40;129.35;;;121.75;;
25932;SDS011;13731;51.166;4.474;2023-10-09T01:57:12;130.45;;;123.15;;
25932;SDS011;13731;51.166;4.474;2023-10-09T01:59:39;122.53;;;115.75;;
25932;SDS011;13731;51.166;4.474;2023-10-09T02:02:18;125.75;;;118.80;;
25932;SDS011;13731;51.166;4.474;2023-10-09T02:05:00;133.88;;;126.60;;
25932;SDS011;13731;51.166;4.474;2023-10-09T02:07:36;129.43;;;122.32;;
25932;SDS011;13731;51.166;4.474;2023-10-09T02:10:11;133.32;;;126.13;;
25932;SDS011;13731;51.166;4.474;2023-10-09T02:12:51;126.30;;;119.32;;
25932;SDS011;13731;51.166;4.474;2023-10-09T02:15:38;125.80;;;118.68;;
25932;SDS011;13731;51.166;4.474;2023-10-09T02:18:15;129.23;;;122.10;;
25932;SDS011;13731;51.166;4.474;2023-10-09T02:20:43;133.65;;;126.15;;
25932;SDS011;13731;51.166;4.474;2023-10-09T02:23:21;130.07;;;122.72;;
25932;SDS011;13731;51.166;4.474;2023-10-09T02:25:58;123.70;;;116.78;;
25932;SDS011;13731;51.166;4.474;2023-10-09T02:28:31;124.15;;;117.28;;
25932;SDS011;13731;51.166;4.474;2023-10-09T02:30:58;125.18;;;118.13;;
25932;SDS011;13731;51.166;4.474;2023-10-09T02:33:26;125.45;;;118.38;;
25932;SDS011;13731;51.166;4.474;2023-10-09T02:35:56;125.70;;;118.60;;
25932;SDS011;13731;51.166;4.474;2023-10-09T02:38:27;126.43;;;119.32;;
25932;SDS011;13731;51.166;4.474;2023-10-09T02:40:53;128.60;;;121.05;;
25932;SDS011;13731;51.166;4.474;2023-10-09T02:43:28;122.95;;;115.55;;
25932;SDS011;13731;51.166;4.474;2023-10-09T02:46:21;121.82;;;114.80;;
25932;SDS011;13731;51.166;4.474;2023-10-09T02:48:56;121.05;;;114.20;;
25932;SDS011;13731;51.166;4.474;2023-10-09T02:51:28;118.70;;;112.18;;
25932;SDS011;13731;51.166;4.474;2023-10-09T02:56:46;120.60;;;113.37;;
25932;SDS011;13731;51.166;4.474;2023-10-09T02:59:19;118.57;;;111.95;;
25932;SDS011;13731;51.166;4.474;2023-10-09T03:01:47;116.32;;;109.53;;
25932;SDS011;13731;51.166;4.474;2023-10-09T03:04:13;115.85;;;109.13;;
25932;SDS011;13731;51.166;4.474;2023-10-09T03:06:40;119.60;;;112.90;;
25932;SDS011;13731;51.166;4.474;2023-10-09T03:09:16;118.80;;;111.95;;
25932;SDS011;13731;51.166;4.474;2023-10-09T03:11:43;119.28;;;111.72;;
25932;SDS011;13731;51.166;4.474;2023-10-09T03:14:21;121.30;;;114.50;;
25932;SDS011;13731;51.166;4.474;2023-10-09T03:16:52;116.78;;;109.95;;
25932;SDS011;13731;51.166;4.474;2023-10-09T03:19:18;112.15;;;105.63;;
25932;SDS011;13731;51.166;4.474;2023-10-09T03:21:43;107.85;;;101.55;;
25932;SDS011;13731;51.166;4.474;2023-10-09T03:24:11;113.15;;;106.75;;
25932;SDS011;13731;51.166;4.474;2023-10-09T03:26:37;108.95;;;102.70;;
25932;SDS011;13731;51.166;4.474;2023-10-09T03:29:03;111.35;;;104.80;;
25932;SDS011;13731;51.166;4.474;2023-10-09T03:31:32;113.55;;;107.22;;
25932;SDS011;13731;51.166;4.474;2023-10-09T03:34:01;118.13;;;111.70;;
25932;SDS011;13731;51.166;4.474;2023-10-09T03:36:30;109.30;;;103.10;;
25932;SDS011;13731;51.166;4.474;2023-10-09T03:39:02;113.60;;;107.20;;
25932;SDS011;13731;51.166;4.474;2023-10-09T03:41:33;110.80;;;104.47;;
25932;SDS011;13731;51.166;4.474;2023-10-09T03:44:06;111.40;;;104.70;;
25932;SDS011;13731;51.166;4.474;2023-10-09T03:46:32;106.78;;;100.60;;
25932;SDS011;13731;51.166;4.474;2023-10-09T03:48:58;110.18;;;103.82;;
25932;SDS011;13731;51.166;4.474;2023-10-09T03:51:35;116.32;;;109.60;;
25932;SDS011;13731;51.166;4.474;2023-10-09T03:54:02;119.00;;;112.30;;
25932;SDS011;13731;51.166;4.474;2023-10-09T03:56:32;121.60;;;114.43;;
25932;SDS011;13731;51.166;4.474;2023-10-09T03:58:59;123.18;;;115.80;;
25932;SDS011;13731;51.166;4.474;2023-10-09T04:01:26;122.75;;;115.63;;
25932;SDS011;13731;51.166;4.474;2023-10-09T04:03:59;117.90;;;111.10;;
25932;SDS011;13731;51.166;4.474;2023-10-09T04:06:29;113.25;;;106.20;;
25932;SDS011;13731;51.166;4.474;2023-10-09T04:09:01;114.47;;;107.65;;
25932;SDS011;13731;51.166;4.474;2023-10-09T04:11:50;118.43;;;111.45;;
25932;SDS011;13731;51.166;4.474;2023-10-09T04:17:20;113.80;;;106.60;;
25932;SDS011;13731;51.166;4.474;2023-10-09T04:19:59;108.65;;;101.85;;
25932;SDS011;13731;51.166;4.474;2023-10-09T04:22:54;108.28;;;101.22;;
25932;SDS011;13731;51.166;4.474;2023-10-09T04:25:30;104.28;;;98.00;;
25932;SDS011;13731;51.166;4.474;2023-10-09T04:28:10;107.72;;;100.95;;
25932;SDS011;13731;51.166;4.474;2023-10-09T04:30:47;113.38;;;106.13;;
25932;SDS011;13731;51.166;4.474;2023-10-09T04:33:21;108.78;;;101.97;;
25932;SDS011;13731;51.166;4.474;2023-10-09T04:36:06;105.40;;;98.78;;
25932;SDS011;13731;51.166;4.474;2023-10-09T04:38:52;104.53;;;97.78;;
25932;SDS011;13731;51.166;4.474;2023-10-09T04:41:44;103.57;;;97.35;;
25932;SDS011;13731;51.166;4.474;2023-10-09T04:44:10;106.80;;;100.32;;
25932;SDS011;13731;51.166;4.474;2023-10-09T04:46:48;107.57;;;100.93;;
25932;SDS011;13731;51.166;4.474;2023-10-09T04:49:44;100.75;;;94.82;;
25932;SDS011;13731;51.166;4.474;2023-10-09T04:52:13;110.40;;;103.70;;
25932;SDS011;13731;51.166;4.474;2023-10-09T04:54:51;104.63;;;97.82;;
25932;SDS011;13731;51.166;4.474;2023-10-09T04:57:32;103.05;;;96.53;;
25932;SDS011;13731;51.166;4.474;2023-10-09T05:00:08;94.60;;;88.53;;
25932;SDS011;13731;51.166;4.474;2023-10-09T05:02:58;95.53;;;88.95;;
25932;SDS011;13731;51.166;4.474;2023-10-09T05:05:37;93.95;;;88.05;;
25932;SDS011;13731;51.166;4.474;2023-10-09T05:13:26;94.90;;;89.13;;
25932;SDS011;13731;51.166;4.474;2023-10-09T05:16:14;98.00;;;91.82;;
25932;SDS011;13731;51.166;4.474;2023-10-09T05:18:48;96.70;;;90.45;;
25932;SDS011;13731;51.166;4.474;2023-10-09T05:21:35;93.75;;;87.40;;
25932;SDS011;13731;51.166;4.474;2023-10-09T05:24:02;97.65;;;91.32;;
25932;SDS011;13731;51.166;4.474;2023-10-09T05:26:41;99.43;;;93.10;;
25932;SDS011;13731;51.166;4.474;2023-10-09T05:29:13;101.68;;;95.28;;
25932;SDS011;13731;51.166;4.474;2023-10-09T05:31:46;106.35;;;99.55;;
25932;SDS011;13731;51.166;4.474;2023-10-09T05:34:22;108.60;;;101.97;;
25932;SDS011;13731;51.166;4.474;2023-10-09T05:36:51;111.10;;;104.18;;
25932;SDS011;13731;51.166;4.474;2023-10-09T05:39:17;111.90;;;104.90;;
25932;SDS011;13731;51.166;4.474;2023-10-09T05:42:03;110.95;;;103.95;;
25932;SDS011;13731;51.166;4.474;2023-10-09T05:44:35;112.25;;;105.43;;
25932;SDS011;13731;51.166;4.474;2023-10-09T05:47:19;110.20;;;102.82;;
25932;SDS011;13731;51.166;4.474;2023-10-09T05:49:56;111.47;;;104.35;;
25932;SDS011;13731;51.166;4.474;2023-10-09T05:52:34;114.25;;;106.85;;
25932;SDS011;13731;51.166;4.474;2023-10-09T05:55:04;122.20;;;114.07;;
25932;SDS011;13731;51.166;4.474;2023-10-09T05:57:33;125.88;;;118.03;;
25932;SDS011;13731;51.166;4.474;2023-10-09T06:00:18;120.03;;;112.30;;
25932;SDS011;13731;51.166;4.474;2023-10-09T06:03:02;124.20;;;116.38;;
25932;SDS011;13731;51.166;4.474;2023-10-09T06:05:50;131.02;;;122.68;;
25932;SDS011;13731;51.166;4.474;2023-10-09T06:08:27;132.80;;;124.38;;
25932;SDS011;13731;51.166;4.474;2023-10-09T06:11:07;128.43;;;120.30;;
25932;SDS011;13731;51.166;4.474;2023-10-09T06:13:55;143.95;;;134.60;;
25932;SDS011;13731;51.166;4.474;2023-10-09T06:16:34;153.60;;;144.25;;
25932;SDS011;13731;51.166;4.474;2023-10-09T06:19:11;153.35;;;143.43;;
25932;SDS011;13731;51.166;4.474;2023-10-09T06:21:44;149.88;;;140.50;;
25932;SDS011;13731;51.166;4.474;2023-10-09T06:24:17;139.13;;;130.20;;
25932;SDS011;13731;51.166;4.474;2023-10-09T06:26:46;141.25;;;132.52;;
25932;SDS011;13731;51.166;4.474;2023-10-09T06:29:24;138.10;;;129.02;;
25932;SDS011;13731;51.166;4.474;2023-10-09T06:34:52;114.43;;;106.70;;
25932;SDS011;13731;51.166;4.474;2023-10-09T06:37:40;120.68;;;112.28;;
25932;SDS011;13731;51.166;4.474;2023-10-09T06:40:26;126.78;;;118.65;;
25932;SDS011;13731;51.166;4.474;2023-10-09T06:43:14;126.87;;;118.53;;
25932;SDS011;13731;51.166;4.474;2023-10-09T06:45:52;123.00;;;114.63;;
25932;SDS011;13731;51.166;4.474;2023-10-09T06:48:40;121.65;;;113.88;;
25932;SDS011;13731;51.166;4.474;2023-10-09T06:53:54;106.85;;;99.55;;
25932;SDS011;13731;51.166;4.474;2023-10-09T06:56:21;116.30;;;108.32;;
25932;SDS011;13731;51.166;4.474;2023-10-09T06:59:12;110.60;;;102.93;;
25932;SDS011;13731;51.166;4.474;2023-10-09T07:01:49;104.65;;;97.45;;
25932;SDS011;13731;51.166;4.474;2023-10-09T07:04:34;109.32;;;101.70;;
25932;SDS011;13731;51.166;4.474;2023-10-09T07:07:00;108.47;;;101.18;;
25932;SDS011;13731;51.166;4.474;2023-10-09T07:09:27;113.32;;;105.70;;
25932;SDS011;13731;51.166;4.474;2023-10-09T07:12:13;111.13;;;103.88;;
25932;SDS011;13731;51.166;4.474;2023-10-09T07:14:45;113.45;;;105.50;;
25932;SDS011;13731;51.166;4.474;2023-10-09T07:17:11;117.25;;;109.63;;
25932;SDS011;13731;51.166;4.474;2023-10-09T07:19:56;119.78;;;112.05;;
25932;SDS011;13731;51.166;4.474;2023-10-09T07:22:36;119.95;;;112.10;;
25932;SDS011;13731;51.166;4.474;2023-10-09T07:25:05;118.88;;;111.30;;
25932;SDS011;13731;51.166;4.474;2023-10-09T07:27:52;126.75;;;118.35;;
25932;SDS011;13731;51.166;4.474;2023-10-09T07:30:21;124.35;;;116.40;;
25932;SDS011;13731;51.166;4.474;2023-10-09T07:32:56;129.77;;;121.20;;
25932;SDS011;13731;51.166;4.474;2023-10-09T07:38:07;133.85;;;125.70;;
25932;SDS011;13731;51.166;4.474;2023-10-09T07:40:34;136.32;;;127.63;;
25932;SDS011;13731;51.166;4.474;2023-10-09T07:43:39;132.43;;;124.15;;
25932;SDS011;13731;51.166;4.474;2023-10-09T07:46:13;136.00;;;127.47;;
25932;SDS011;13731;51.166;4.474;2023-10-09T07:48:55;132.40;;;124.22;;
25932;SDS011;13731;51.166;4.474;2023-10-09T07:51:22;132.73;;;124.18;;
25932;SDS011;13731;51.166;4.474;2023-10-09T07:53:56;131.32;;;123.15;;
25932;SDS011;13731;51.166;4.474;2023-10-09T07:56:42;130.23;;;121.95;;
25932;SDS011;13731;51.166;4.474;2023-10-09T07:59:15;133.18;;;124.55;;
25932;SDS011;13731;51.166;4.474;2023-10-09T08:01:44;133.80;;;125.40;;
25932;SDS011;13731;51.166;4.474;2023-10-09T08:04:25;129.60;;;121.30;;
25932;SDS011;13731;51.166;4.474;2023-10-09T08:07:07;141.50;;;132.93;;
25932;SDS011;13731;51.166;4.474;2023-10-09T08:09:37;135.90;;;127.63;;
25932;SDS011;13731;51.166;4.474;2023-10-09T08:12:15;137.55;;;128.60;;
25932;SDS011;13731;51.166;4.474;2023-10-09T08:14:59;133.13;;;124.60;;
25932;SDS011;13731;51.166;4.474;2023-10-09T08:18:01;127.40;;;119.35;;
25932;SDS011;13731;51.166;4.474;2023-10-09T08:20:39;126.25;;;117.95;;
25932;SDS011;13731;51.166;4.474;2023-10-09T08:23:24;121.60;;;113.10;;
25932;SDS011;13731;51.166;4.474;2023-10-09T08:26:13;121.50;;;113.90;;
25932;SDS011;13731;51.166;4.474;2023-10-09T08:28:57;122.32;;;114.80;;
25932;SDS011;13731;51.166;4.474;2023-10-09T08:31:52;110.20;;;103.28;;
25932;SDS011;13731;51.166;4.474;2023-10-09T08:34:22;119.20;;;111.75;;
25932;SDS011;13731;51.166;4.474;2023-10-09T08:36:51;104.50;;;97.78;;
25932;SDS011;13731;51.166;4.474;2023-10-09T08:39:18;102.15;;;95.70;;
25932;SDS011;13731;51.166;4.474;2023-10-09T08:41:51;107.95;;;101.35;;
25932;SDS011;13731;51.166;4.474;2023-10-09T08:44:18;101.43;;;94.57;;
25932;SDS011;13731;51.166;4.474;2023-10-09T08:46:47;103.18;;;96.03;;
25932;SDS011;13731;51.166;4.474;2023-10-09T08:49:15;102.07;;;95.72;;
25932;SDS011;13731;51.166;4.474;2023-10-09T08:51:42;107.82;;;101.07;;
25932;SDS011;13731;51.166;4.474;2023-10-09T08:54:08;111.22;;;104.15;;
25932;SDS011;13731;51.166;4.474;2023-10-09T08:56:38;110.40;;;103.43;;
25932;SDS011;13731;51.166;4.474;2023-10-09T08:59:14;109.85;;;102.85;;
25932;SDS011;13731;51.166;4.474;2023-10-09T09:01:48;108.65;;;102.07;;
25932;SDS011;13731;51.166;4.474;2023-10-09T09:07:23;81.50;;;76.00;;
25932;SDS011;13731;51.166;4.474;2023-10-09T09:09:58;81.82;;;76.35;;
25932;SDS011;13731;51.166;4.474;2023-10-09T09:12:43;78.32;;;72.55;;
25932;SDS011;13731;51.166;4.474;2023-10-09T09:15:15;77.13;;;71.72;;
25932;SDS011;13731;51.166;4.474;2023-10-09T09:17:45;73.93;;;68.10;;
25932;SDS011;13731;51.166;4.474;2023-10-09T09:20:22;72.45;;;67.10;;
25932;SDS011;13731;51.166;4.474;2023-10-09T09:23:05;72.88;;;67.70;;
25932;SDS011;13731;51.166;4.474;2023-10-09T09:25:47;81.22;;;76.07;;
25932;SDS011;13731;51.166;4.474;2023-10-09T09:28:22;93.68;;;87.55;;
25932;SDS011;13731;51.166;4.474;2023-10-09T09:33:20;90.03;;;83.60;;
25932;SDS011;13731;51.166;4.474;2023-10-09T09:36:05;98.65;;;92.10;;
25932;SDS011;13731;51.166;4.474;2023-10-09T09:38:32;99.65;;;93.72;;
25932;SDS011;13731;51.166;4.474;2023-10-09T09:41:16;90.63;;;84.20;;
25932;SDS011;13731;51.166;4.474;2023-10-09T09:43:51;100.03;;;93.68;;
25932;SDS011;13731;51.166;4.474;2023-10-09T09:46:24;101.13;;;94.80;;
25932;SDS011;13731;51.166;4.474;2023-10-09T09:49:01;123.45;;;116.38;;
25932;SDS011;13731;51.166;4.474;2023-10-09T09:51:31;103.10;;;96.85;;
25932;SDS011;13731;51.166;4.474;2023-10-09T09:53:57;100.53;;;94.15;;
25932;SDS011;13731;51.166;4.474;2023-10-09T09:56:24;111.07;;;105.03;;
25932;SDS011;13731;51.166;4.474;2023-10-09T09:58:51;120.68;;;113.97;;
25932;SDS011;13731;51.166;4.474;2023-10-09T10:01:23;119.22;;;112.22;;
25932;SDS011;13731;51.166;4.474;2023-10-09T10:04:01;115.72;;;108.80;;
25932;SDS011;13731;51.166;4.474;2023-10-09T10:06:39;152.10;;;143.48;;
25932;SDS011;13731;51.166;4.474;2023-10-09T10:12:09;178.85;;;169.15;;
25932;SDS011;13731;51.166;4.474;2023-10-09T10:14:51;191.32;;;181.50;;
25932;SDS011;13731;51.166;4.474;2023-10-09T10:20:28;177.10;;;167.75;;
25932;SDS011;13731;51.166;4.474;2023-10-09T10:23:15;182.10;;;172.05;;
25932;SDS011;13731;51.166;4.474;2023-10-09T10:25:50;174.77;;;165.45;;
25932;SDS011;13731;51.166;4.474;2023-10-09T10:28:25;182.57;;;172.70;;
25932;SDS011;13731;51.166;4.474;2023-10-09T10:31:07;192.32;;;182.00;;
25932;SDS011;13731;51.166;4.474;2023-10-09T10:36:21;177.65;;;168.25;;
25932;SDS011;13731;51.166;4.474;2023-10-09T10:38:58;157.82;;;149.25;;
25932;SDS011;13731;51.166;4.474;2023-10-09T10:41:34;108.63;;;102.45;;
25932;SDS011;13731;51.166;4.474;2023-10-09T10:44:24;128.35;;;121.03;;
25932;SDS011;13731;51.166;4.474;2023-10-09T10:46:59;129.20;;;121.55;;
25932;SDS011;13731;51.166;4.474;2023-10-09T10:49:26;176.20;;;166.95;;
25932;SDS011;13731;51.166;4.474;2023-10-09T10:52:02;174.10;;;164.35;;
25932;SDS011;13731;51.166;4.474;2023-10-09T10:54:43;143.82;;;135.48;;
25932;SDS011;13731;51.166;4.474;2023-10-09T10:57:19;131.07;;;123.55;;
25932;SDS011;13731;51.166;4.474;2023-10-09T10:59:56;170.43;;;160.43;;
25932;SDS011;13731;51.166;4.474;2023-10-09T11:02:40;216.88;;;205.35;;
25932;SDS011;13731;51.166;4.474;2023-10-09T11:05:08;192.57;;;182.07;;
25932;SDS011;13731;51.166;4.474;2023-10-09T11:07:48;194.10;;;183.45;;
25932;SDS011;13731;51.166;4.474;2023-10-09T11:10:21;231.25;;;218.98;;
25932;SDS011;13731;51.166;4.474;2023-10-09T11:12:56;193.05;;;182.90;;
25932;SDS011;13731;51.166;4.474;2023-10-09T11:15:37;160.18;;;151.45;;
25932;SDS011;13731;51.166;4.474;2023-10-09T11:18:10;202.95;;;192.52;;
25932;SDS011;13731;51.166;4.474;2023-10-09T11:20:51;223.80;;;212.43;;
25932;SDS011;13731;51.166;4.474;2023-10-09T11:23:29;229.60;;;217.52;;
25932;SDS011;13731;51.166;4.474;2023-10-09T11:25:59;227.10;;;215.23;;
25932;SDS011;13731;51.166;4.474;2023-10-09T11:28:44;227.73;;;215.65;;
25932;SDS011;13731;51.166;4.474;2023-10-09T11:31:32;212.77;;;201.90;;
25932;SDS011;13731;51.166;4.474;2023-10-09T11:33:59;248.32;;;235.63;;
25932;SDS011;13731;51.166;4.474;2023-10-09T11:36:26;245.98;;;232.95;;
25932;SDS011;13731;51.166;4.474;2023-10-09T11:38:59;256.25;;;243.27;;
25932;SDS011;13731;51.166;4.474;2023-10-09T11:41:46;243.82;;;231.10;;
25932;SDS011;13731;51.166;4.474;2023-10-09T11:44:15;230.88;;;219.25;;
25932;SDS011;13731;51.166;4.474;2023-10-09T11:46:59;167.95;;;158.85;;
25932;SDS011;13731;51.166;4.474;2023-10-09T11:49:51;166.10;;;156.90;;
25932;SDS011;13731;51.166;4.474;2023-10-09T11:52:26;216.00;;;204.82;;
25932;SDS011;13731;51.166;4.474;2023-10-09T11:55:00;222.63;;;211.20;;
25932;SDS011;13731;51.166;4.474;2023-10-09T11:57:28;256.30;;;242.43;;
25932;SDS011;13731;51.166;4.474;2023-10-09T11:59:59;256.05;;;242.80;;
25932;SDS011;13731;51.166;4.474;2023-10-09T12:02:26;264.90;;;251.52;;
25932;SDS011;13731;51.166;4.474;2023-10-09T12:04:52;222.85;;;211.07;;
25932;SDS011;13731;51.166;4.474;2023-10-09T12:07:21;196.68;;;186.18;;
25932;SDS011;13731;51.166;4.474;2023-10-09T12:09:48;187.32;;;177.32;;
25932;SDS011;13731;51.166;4.474;2023-10-09T12:12:16;189.13;;;178.80;;
25932;SDS011;13731;51.166;4.474;2023-10-09T12:14:43;203.60;;;192.35;;
25932;SDS011;13731;51.166;4.474;2023-10-09T12:17:09;174.60;;;164.85;;
25932;SDS011;13731;51.166;4.474;2023-10-09T12:19:36;220.23;;;208.50;;
25932;SDS011;13731;51.166;4.474;2023-10-09T12:22:04;155.30;;;146.60;;
25932;SDS011;13731;51.166;4.474;2023-10-09T12:24:32;199.48;;;188.65;;
25932;SDS011;13731;51.166;4.474;2023-10-09T12:26:59;200.57;;;190.02;;
25932;SDS011;13731;51.166;4.474;2023-10-09T12:29:25;209.95;;;198.95;;
25932;SDS011;13731;51.166;4.474;2023-10-09T12:31:58;200.70;;;189.45;;
25932;SDS011;13731;51.166;4.474;2023-10-09T12:34:27;205.35;;;194.63;;
25932;SDS011;13731;51.166;4.474;2023-10-09T12:36:54;210.88;;;199.77;;
25932;SDS011;13731;51.166;4.474;2023-10-09T12:39:22;199.23;;;188.70;;
25932;SDS011;13731;51.166;4.474;2023-10-09T12:41:48;180.02;;;170.68;;
25932;SDS011;13731;51.166;4.474;2023-10-09T12:44:19;189.88;;;179.68;;
25932;SDS011;13731;51.166;4.474;2023-10-09T12:46:47;162.77;;;153.70;;
25932;SDS011;13731;51.166;4.474;2023-10-09T12:49:22;156.32;;;147.82;;
25932;SDS011;13731;51.166;4.474;2023-10-09T12:51:54;172.73;;;163.43;;
25932;SDS011;13731;51.166;4.474;2023-10-09T12:54:20;183.75;;;173.70;;
25932;SDS011;13731;51.166;4.474;2023-10-09T12:56:49;157.60;;;149.07;;
25932;SDS011;13731;51.166;4.474;2023-10-09T12:59:15;158.27;;;149.60;;
25932;SDS011;13731;51.166;4.474;2023-10-09T13:01:41;176.45;;;166.90;;
25932;SDS011;13731;51.166;4.474;2023-10-09T13:04:10;175.98;;;166.00;;
25932;SDS011;13731;51.166;4.474;2023-10-09T13:06:40;178.27;;;168.75;;
25932;SDS011;13731;51.166;4.474;2023-10-09T13:09:10;181.35;;;171.45;;
25932;SDS011;13731;51.166;4.474;2023-10-09T13:11:36;198.02;;;187.60;;
25932;SDS011;13731;51.166;4.474;2023-10-09T13:14:02;188.88;;;178.85;;
25932;SDS011;13731;51.166;4.474;2023-10-09T13:16:36;154.90;;;145.95;;
25932;SDS011;13731;51.166;4.474;2023-10-09T13:19:02;170.52;;;161.35;;
25932;SDS011;13731;51.166;4.474;2023-10-09T13:21:35;204.05;;;193.70;;
25932;SDS011;13731;51.166;4.474;2023-10-09T13:24:04;200.15;;;189.70;;
25932;SDS011;13731;51.166;4.474;2023-10-09T13:26:30;214.98;;;203.93;;
25932;SDS011;13731;51.166;4.474;2023-10-09T13:29:00;182.32;;;172.10;;
25932;SDS011;13731;51.166;4.474;2023-10-09T13:31:27;149.48;;;141.18;;
25932;SDS011;13731;51.166;4.474;2023-10-09T13:33:57;172.82;;;163.90;;
25932;SDS011;13731;51.166;4.474;2023-10-09T13:36:27;205.82;;;195.40;;
25932;SDS011;13731;51.166;4.474;2023-10-09T13:39:01;169.55;;;160.52;;
25932;SDS011;13731;51.166;4.474;2023-10-09T13:41:51;139.48;;;131.85;;
25932;SDS011;13731;51.166;4.474;2023-10-09T13:44:27;153.70;;;144.68;;
25932;SDS011;13731;51.166;4.474;2023-10-09T13:46:58;139.23;;;131.73;;
25932;SDS011;13731;51.166;4.474;2023-10-09T13:49:47;131.55;;;124.03;;
25932;SDS011;13731;51.166;4.474;2023-10-09T13:52:16;137.43;;;129.50;;
25932;SDS011;13731;51.166;4.474;2023-10-09T13:54:43;142.95;;;134.88;;
25932;SDS011;13731;51.166;4.474;2023-10-09T13:57:13;151.57;;;143.50;;
25932;SDS011;13731;51.166;4.474;2023-10-09T13:59:40;152.90;;;144.30;;
25932;SDS011;13731;51.166;4.474;2023-10-09T14:02:16;151.55;;;143.70;;
25932;SDS011;13731;51.166;4.474;2023-10-09T14:04:43;122.57;;;115.97;;
25932;SDS011;13731;51.166;4.474;2023-10-09T14:07:12;120.78;;;113.93;;
25932;SDS011;13731;51.166;4.474;2023-10-09T14:09:42;131.15;;;124.10;;
25932;SDS011;13731;51.166;4.474;2023-10-09T14:12:08;124.57;;;117.82;;
25932;SDS011;13731;51.166;4.474;2023-10-09T14:14:36;118.45;;;111.82;;
25932;SDS011;13731;51.166;4.474;2023-10-09T14:17:08;136.73;;;129.10;;
25932;SDS011;13731;51.166;4.474;2023-10-09T14:19:39;135.98;;;128.77;;
25932;SDS011;13731;51.166;4.474;2023-10-09T14:22:17;154.57;;;146.38;;
25932;SDS011;13731;51.166;4.474;2023-10-09T14:24:47;165.00;;;156.38;;
25932;SDS011;13731;51.166;4.474;2023-10-09T14:27:20;177.32;;;168.13;;
25932;SDS011;13731;51.166;4.474;2023-10-09T14:29:53;159.15;;;150.82;;
25932;SDS011;13731;51.166;4.474;2023-10-09T14:32:22;151.02;;;143.02;;
25932;SDS011;13731;51.166;4.474;2023-10-09T14:34:54;199.68;;;189.73;;
25932;SDS011;13731;51.166;4.474;2023-10-09T14:37:26;201.90;;;191.85;;
25932;SDS011;13731;51.166;4.474;2023-10-09T14:39:52;217.48;;;206.25;;
25932;SDS011;13731;51.166;4.474;2023-10-09T14:42:20;217.60;;;206.73;;
25932;SDS011;13731;51.166;4.474;2023-10-09T14:44:48;230.95;;;219.80;;
25932;SDS011;13731;51.166;4.474;2023-10-09T14:47:15;230.15;;;218.98;;
25932;SDS011;13731;51.166;4.474;2023-10-09T14:49:46;208.60;;;197.95;;
25932;SDS011;13731;51.166;4.474;2023-10-09T14:52:13;216.57;;;205.45;;
25932;SDS011;13731;51.166;4.474;2023-10-09T14:54:44;203.20;;;193.05;;
25932;SDS011;13731;51.166;4.474;2023-10-09T14:57:10;245.07;;;232.13;;
25932;SDS011;13731;51.166;4.474;2023-10-09T14:59:36;216.98;;;206.13;;
25932;SDS011;13731;51.166;4.474;2023-10-09T15:02:03;219.27;;;208.32;;
25932;SDS011;13731;51.166;4.474;2023-10-09T15:04:30;148.65;;;140.27;;
25932;SDS011;13731;51.166;4.474;2023-10-09T15:06:57;133.57;;;126.03;;
25932;SDS011;13731;51.166;4.474;2023-10-09T15:09:23;143.90;;;135.85;;
25932;SDS011;13731;51.166;4.474;2023-10-09T15:11:53;156.15;;;147.52;;
25932;SDS011;13731;51.166;4.474;2023-10-09T15:14:19;160.60;;;151.98;;
25932;SDS011;13731;51.166;4.474;2023-10-09T15:16:46;182.93;;;172.02;;